sensor_id;sensor_type;location;lat;lon;timestamp;P1;durP1;ratioP1;P2;durP2;ratioP2
28166;SDS011;15455;53.376;-6.262;2022-10-16T00:02:33;0.57;;;0.57;;
28166;SDS011;15455;53.376;-6.262;2022-10-16T00:05:19;2.28;;;0.90;;
28166;SDS011;15455;53.376;-6.262;2022-10-16T00:08:04;5.13;;;1.13;;
28166;SDS011;15455;53.376;-6.262;2022-10-16T00:10:50;3.47;;;0.88;;
28166;SDS011;15455;53.376;-6.262;2022-10-16T00:13:36;2.70;;;0.60;;
28166;SDS011;15455;53.376;-6.262;2022-10-16T00:16:23;2.03;;;0.80;;
28166;SDS011;15455;53.376;-6.262;2022-10-16T00:19:10;3.40;;;0.50;;
28166;SDS011;15455;53.376;-6.262;2022-10-16T00:21:57;1.40;;;0.43;;
28166;SDS011;15455;53.376;-6.262;2022-10-16T00:24:42;2.47;;;0.73;;
28166;SDS011;15455;53.376;-6.262;2022-10-16T00:27:27;1.23;;;0.45;;
28166;SDS011;15455;53.376;-6.262;2022-10-16T00:30:13;1.73;;;0.47;;
28166;SDS011;15455;53.376;-6.262;2022-10-16T00:32:59;0.85;;;0.50;;
28166;SDS011;15455;53.376;-6.262;2022-10-16T00:35:45;0.70;;;0.40;;
28166;SDS011;15455;53.376;-6.262;2022-10-16T00:38:30;5.22;;;0.73;;
28166;SDS011;15455;53.376;-6.262;2022-10-16T00:41:16;1.05;;;0.50;;
28166;SDS011;15455;53.376;-6.262;2022-10-16T00:44:03;1.50;;;0.60;;
28166;SDS011;15455;53.376;-6.262;2022-10-16T00:47:45;1.35;;;0.40;;
28166;SDS011;15455;53.376;-6.262;2022-10-16T00:50:34;1.40;;;0.40;;
28166;SDS011;15455;53.376;-6.262;2022-10-16T00:53:20;0.68;;;0.52;;
28166;SDS011;15455;53.376;-6.262;2022-10-16T00:56:06;7.63;;;0.55;;
28166;SDS011;15455;53.376;-6.262;2022-10-16T00:58:53;1.48;;;0.50;;
28166;SDS011;15455;53.376;-6.262;2022-10-16T01:01:38;2.80;;;0.40;;
28166;SDS011;15455;53.376;-6.262;2022-10-16T01:04:24;6.25;;;0.70;;
28166;SDS011;15455;53.376;-6.262;2022-10-16T01:07:20;2.00;;;1.00;;
28166;SDS011;15455;53.376;-6.262;2022-10-16T01:13:18;6.80;;;1.58;;
28166;SDS011;15455;53.376;-6.262;2022-10-16T01:16:13;4.50;;;0.45;;
28166;SDS011;15455;53.376;-6.262;2022-10-16T01:19:09;2.42;;;0.70;;
28166;SDS011;15455;53.376;-6.262;2022-10-16T01:22:01;6.68;;;0.52;;
28166;SDS011;15455;53.376;-6.262;2022-10-16T01:24:49;3.15;;;0.50;;
28166;SDS011;15455;53.376;-6.262;2022-10-16T01:27:35;1.05;;;0.45;;
28166;SDS011;15455;53.376;-6.262;2022-10-16T01:30:29;4.32;;;0.80;;
28166;SDS011;15455;53.376;-6.262;2022-10-16T01:33:21;6.40;;;0.57;;
28166;SDS011;15455;53.376;-6.262;2022-10-16T01:36:21;1.25;;;0.50;;
28166;SDS011;15455;53.376;-6.262;2022-10-16T01:39:14;1.65;;;0.40;;
28166;SDS011;15455;53.376;-6.262;2022-10-16T01:42:03;1.42;;;0.47;;
28166;SDS011;15455;53.376;-6.262;2022-10-16T01:44:55;5.70;;;1.02;;
28166;SDS011;15455;53.376;-6.262;2022-10-16T01:47:42;6.07;;;0.85;;
28166;SDS011;15455;53.376;-6.262;2022-10-16T01:50:29;1.85;;;0.50;;
28166;SDS011;15455;53.376;-6.262;2022-10-16T01:53:19;2.35;;;0.70;;
28166;SDS011;15455;53.376;-6.262;2022-10-16T01:56:08;1.45;;;0.57;;
28166;SDS011;15455;53.376;-6.262;2022-10-16T01:59:04;2.65;;;0.70;;
28166;SDS011;15455;53.376;-6.262;2022-10-16T02:01:55;3.08;;;0.70;;
28166;SDS011;15455;53.376;-6.262;2022-10-16T02:04:58;3.83;;;0.50;;
28166;SDS011;15455;53.376;-6.262;2022-10-16T02:07:49;1.48;;;0.80;;
28166;SDS011;15455;53.376;-6.262;2022-10-16T02:10:35;4.43;;;0.43;;
28166;SDS011;15455;53.376;-6.262;2022-10-16T02:16:50;9.82;;;0.57;;
28166;SDS011;15455;53.376;-6.262;2022-10-16T02:19:36;3.60;;;0.60;;
28166;SDS011;15455;53.376;-6.262;2022-10-16T02:22:32;2.58;;;0.85;;
28166;SDS011;15455;53.376;-6.262;2022-10-16T02:25:27;3.25;;;0.50;;
28166;SDS011;15455;53.376;-6.262;2022-10-16T02:28:22;1.63;;;0.60;;
28166;SDS011;15455;53.376;-6.262;2022-10-16T02:31:15;5.32;;;0.90;;
28166;SDS011;15455;53.376;-6.262;2022-10-16T02:34:05;5.13;;;0.55;;
28166;SDS011;15455;53.376;-6.262;2022-10-16T02:36:53;0.82;;;0.35;;
28166;SDS011;15455;53.376;-6.262;2022-10-16T02:39:40;8.02;;;0.73;;
28166;SDS011;15455;53.376;-6.262;2022-10-16T02:42:32;3.80;;;0.70;;
28166;SDS011;15455;53.376;-6.262;2022-10-16T02:45:23;0.95;;;0.43;;
28166;SDS011;15455;53.376;-6.262;2022-10-16T02:48:09;1.02;;;0.55;;
28166;SDS011;15455;53.376;-6.262;2022-10-16T02:50:55;3.35;;;0.60;;
28166;SDS011;15455;53.376;-6.262;2022-10-16T02:53:42;4.13;;;1.35;;
28166;SDS011;15455;53.376;-6.262;2022-10-16T02:56:27;3.13;;;0.50;;
28166;SDS011;15455;53.376;-6.262;2022-10-16T02:59:13;0.80;;;0.45;;
28166;SDS011;15455;53.376;-6.262;2022-10-16T03:01:58;4.88;;;0.50;;
28166;SDS011;15455;53.376;-6.262;2022-10-16T03:04:44;0.68;;;0.40;;
28166;SDS011;15455;53.376;-6.262;2022-10-16T03:07:29;4.60;;;0.68;;
28166;SDS011;15455;53.376;-6.262;2022-10-16T03:10:14;4.25;;;0.50;;
28166;SDS011;15455;53.376;-6.262;2022-10-16T03:13:00;7.90;;;0.93;;
28166;SDS011;15455;53.376;-6.262;2022-10-16T03:15:46;0.70;;;0.45;;
28166;SDS011;15455;53.376;-6.262;2022-10-16T03:18:31;0.40;;;0.40;;
28166;SDS011;15455;53.376;-6.262;2022-10-16T03:21:16;2.65;;;0.50;;
28166;SDS011;15455;53.376;-6.262;2022-10-16T03:24:02;5.85;;;0.50;;
28166;SDS011;15455;53.376;-6.262;2022-10-16T03:26:48;5.30;;;0.52;;
28166;SDS011;15455;53.376;-6.262;2022-10-16T03:29:33;3.00;;;0.50;;
28166;SDS011;15455;53.376;-6.262;2022-10-16T03:32:19;4.82;;;0.50;;
28166;SDS011;15455;53.376;-6.262;2022-10-16T03:35:05;1.02;;;0.50;;
28166;SDS011;15455;53.376;-6.262;2022-10-16T03:37:51;2.60;;;0.40;;
28166;SDS011;15455;53.376;-6.262;2022-10-16T03:40:36;2.40;;;0.68;;
28166;SDS011;15455;53.376;-6.262;2022-10-16T03:43:22;2.63;;;0.50;;
28166;SDS011;15455;53.376;-6.262;2022-10-16T03:46:07;3.40;;;0.35;;
28166;SDS011;15455;53.376;-6.262;2022-10-16T03:48:53;5.80;;;0.90;;
28166;SDS011;15455;53.376;-6.262;2022-10-16T03:51:38;1.75;;;0.40;;
28166;SDS011;15455;53.376;-6.262;2022-10-16T03:54:24;2.88;;;0.35;;
28166;SDS011;15455;53.376;-6.262;2022-10-16T03:57:09;9.43;;;0.73;;
28166;SDS011;15455;53.376;-6.262;2022-10-16T03:59:55;3.35;;;0.45;;
28166;SDS011;15455;53.376;-6.262;2022-10-16T04:02:40;3.33;;;0.60;;
28166;SDS011;15455;53.376;-6.262;2022-10-16T04:05:26;5.43;;;0.57;;
28166;SDS011;15455;53.376;-6.262;2022-10-16T04:08:11;0.95;;;0.40;;
28166;SDS011;15455;53.376;-6.262;2022-10-16T04:10:57;1.00;;;0.50;;
28166;SDS011;15455;53.376;-6.262;2022-10-16T04:13:42;9.48;;;0.60;;
28166;SDS011;15455;53.376;-6.262;2022-10-16T04:16:28;8.10;;;0.40;;
28166;SDS011;15455;53.376;-6.262;2022-10-16T04:19:13;0.52;;;0.30;;
28166;SDS011;15455;53.376;-6.262;2022-10-16T04:21:59;4.20;;;0.60;;
28166;SDS011;15455;53.376;-6.262;2022-10-16T04:24:44;1.65;;;0.40;;
28166;SDS011;15455;53.376;-6.262;2022-10-16T04:27:30;1.60;;;0.30;;
28166;SDS011;15455;53.376;-6.262;2022-10-16T04:30:16;3.55;;;0.38;;
28166;SDS011;15455;53.376;-6.262;2022-10-16T04:33:01;2.05;;;0.45;;
28166;SDS011;15455;53.376;-6.262;2022-10-16T04:35:47;4.18;;;0.80;;
28166;SDS011;15455;53.376;-6.262;2022-10-16T04:38:33;2.58;;;0.40;;
28166;SDS011;15455;53.376;-6.262;2022-10-16T04:41:18;5.13;;;0.50;;
28166;SDS011;15455;53.376;-6.262;2022-10-16T04:44:04;3.72;;;0.43;;
28166;SDS011;15455;53.376;-6.262;2022-10-16T04:46:52;1.85;;;0.30;;
28166;SDS011;15455;53.376;-6.262;2022-10-16T04:49:38;0.55;;;0.32;;
28166;SDS011;15455;53.376;-6.262;2022-10-16T04:52:23;1.48;;;0.40;;
28166;SDS011;15455;53.376;-6.262;2022-10-16T04:55:10;3.60;;;0.52;;
28166;SDS011;15455;53.376;-6.262;2022-10-16T04:57:56;1.55;;;0.77;;
28166;SDS011;15455;53.376;-6.262;2022-10-16T05:00:41;5.22;;;0.50;;
28166;SDS011;15455;53.376;-6.262;2022-10-16T05:03:26;1.25;;;0.85;;
28166;SDS011;15455;53.376;-6.262;2022-10-16T05:06:12;3.30;;;0.73;;
28166;SDS011;15455;53.376;-6.262;2022-10-16T05:08:58;4.18;;;0.40;;
28166;SDS011;15455;53.376;-6.262;2022-10-16T05:11:43;4.68;;;0.55;;
28166;SDS011;15455;53.376;-6.262;2022-10-16T05:14:29;6.82;;;1.30;;
28166;SDS011;15455;53.376;-6.262;2022-10-16T05:17:15;4.35;;;0.52;;
28166;SDS011;15455;53.376;-6.262;2022-10-16T05:20:00;2.67;;;0.28;;
28166;SDS011;15455;53.376;-6.262;2022-10-16T05:22:46;0.88;;;0.55;;
28166;SDS011;15455;53.376;-6.262;2022-10-16T05:25:32;4.00;;;0.50;;
28166;SDS011;15455;53.376;-6.262;2022-10-16T05:28:18;4.20;;;0.52;;
28166;SDS011;15455;53.376;-6.262;2022-10-16T05:31:04;7.78;;;0.55;;
28166;SDS011;15455;53.376;-6.262;2022-10-16T05:33:57;4.68;;;0.70;;
28166;SDS011;15455;53.376;-6.262;2022-10-16T05:36:45;10.45;;;0.70;;
28166;SDS011;15455;53.376;-6.262;2022-10-16T05:39:31;2.47;;;0.28;;
28166;SDS011;15455;53.376;-6.262;2022-10-16T05:42:17;4.80;;;0.52;;
28166;SDS011;15455;53.376;-6.262;2022-10-16T05:45:03;3.05;;;0.43;;
28166;SDS011;15455;53.376;-6.262;2022-10-16T05:47:50;3.15;;;0.55;;
28166;SDS011;15455;53.376;-6.262;2022-10-16T05:50:36;1.45;;;0.70;;
28166;SDS011;15455;53.376;-6.262;2022-10-16T05:53:22;3.20;;;0.68;;
28166;SDS011;15455;53.376;-6.262;2022-10-16T05:56:10;4.43;;;0.60;;
28166;SDS011;15455;53.376;-6.262;2022-10-16T05:58:57;1.23;;;0.30;;
28166;SDS011;15455;53.376;-6.262;2022-10-16T06:01:42;2.60;;;0.70;;
28166;SDS011;15455;53.376;-6.262;2022-10-16T06:04:28;6.35;;;0.40;;
28166;SDS011;15455;53.376;-6.262;2022-10-16T06:07:13;6.88;;;0.60;;
28166;SDS011;15455;53.376;-6.262;2022-10-16T06:09:59;1.55;;;0.30;;
28166;SDS011;15455;53.376;-6.262;2022-10-16T06:12:44;1.08;;;0.30;;
28166;SDS011;15455;53.376;-6.262;2022-10-16T06:15:29;5.97;;;0.52;;
28166;SDS011;15455;53.376;-6.262;2022-10-16T06:18:15;6.50;;;0.65;;
28166;SDS011;15455;53.376;-6.262;2022-10-16T06:21:06;2.50;;;0.57;;
28166;SDS011;15455;53.376;-6.262;2022-10-16T06:23:53;9.20;;;1.00;;
28166;SDS011;15455;53.376;-6.262;2022-10-16T06:26:40;5.15;;;0.50;;
28166;SDS011;15455;53.376;-6.262;2022-10-16T06:29:25;5.93;;;0.30;;
28166;SDS011;15455;53.376;-6.262;2022-10-16T06:32:11;10.38;;;0.73;;
28166;SDS011;15455;53.376;-6.262;2022-10-16T06:34:57;2.05;;;0.60;;
28166;SDS011;15455;53.376;-6.262;2022-10-16T06:37:43;4.88;;;0.93;;
28166;SDS011;15455;53.376;-6.262;2022-10-16T06:40:28;3.88;;;0.55;;
28166;SDS011;15455;53.376;-6.262;2022-10-16T06:43:14;5.68;;;0.63;;
28166;SDS011;15455;53.376;-6.262;2022-10-16T06:45:59;1.45;;;0.30;;
28166;SDS011;15455;53.376;-6.262;2022-10-16T06:48:46;12.73;;;0.68;;
28166;SDS011;15455;53.376;-6.262;2022-10-16T06:51:32;6.20;;;0.50;;
28166;SDS011;15455;53.376;-6.262;2022-10-16T06:54:24;8.98;;;0.75;;
28166;SDS011;15455;53.376;-6.262;2022-10-16T06:57:10;3.25;;;0.90;;
28166;SDS011;15455;53.376;-6.262;2022-10-16T06:59:56;4.90;;;0.52;;
28166;SDS011;15455;53.376;-6.262;2022-10-16T07:02:41;2.83;;;0.90;;
28166;SDS011;15455;53.376;-6.262;2022-10-16T07:05:26;1.70;;;0.20;;
28166;SDS011;15455;53.376;-6.262;2022-10-16T07:08:11;3.13;;;0.43;;
28166;SDS011;15455;53.376;-6.262;2022-10-16T07:10:58;0.93;;;0.38;;
28166;SDS011;15455;53.376;-6.262;2022-10-16T07:13:44;4.32;;;0.60;;
28166;SDS011;15455;53.376;-6.262;2022-10-16T07:16:38;1.65;;;0.30;;
28166;SDS011;15455;53.376;-6.262;2022-10-16T07:19:23;0.82;;;0.38;;
28166;SDS011;15455;53.376;-6.262;2022-10-16T07:22:14;0.60;;;0.47;;
28166;SDS011;15455;53.376;-6.262;2022-10-16T07:24:59;2.78;;;0.50;;
28166;SDS011;15455;53.376;-6.262;2022-10-16T07:27:45;5.25;;;0.52;;
28166;SDS011;15455;53.376;-6.262;2022-10-16T07:30:34;2.83;;;0.57;;
28166;SDS011;15455;53.376;-6.262;2022-10-16T07:33:21;2.67;;;0.47;;
28166;SDS011;15455;53.376;-6.262;2022-10-16T07:36:07;2.80;;;0.30;;
28166;SDS011;15455;53.376;-6.262;2022-10-16T07:38:58;6.22;;;0.57;;
28166;SDS011;15455;53.376;-6.262;2022-10-16T07:41:44;5.85;;;0.75;;
28166;SDS011;15455;53.376;-6.262;2022-10-16T07:44:30;6.05;;;0.45;;
28166;SDS011;15455;53.376;-6.262;2022-10-16T07:47:15;5.00;;;0.65;;
28166;SDS011;15455;53.376;-6.262;2022-10-16T07:50:01;1.55;;;0.50;;
28166;SDS011;15455;53.376;-6.262;2022-10-16T07:52:46;1.40;;;0.52;;
28166;SDS011;15455;53.376;-6.262;2022-10-16T07:55:32;2.55;;;0.65;;
28166;SDS011;15455;53.376;-6.262;2022-10-16T07:58:17;5.57;;;0.75;;
28166;SDS011;15455;53.376;-6.262;2022-10-16T08:01:06;4.05;;;1.08;;
28166;SDS011;15455;53.376;-6.262;2022-10-16T08:03:56;5.32;;;0.80;;
28166;SDS011;15455;53.376;-6.262;2022-10-16T08:06:41;3.70;;;0.80;;
28166;SDS011;15455;53.376;-6.262;2022-10-16T08:09:27;4.20;;;0.75;;
28166;SDS011;15455;53.376;-6.262;2022-10-16T08:12:12;3.35;;;0.73;;
28166;SDS011;15455;53.376;-6.262;2022-10-16T08:14:58;3.05;;;0.80;;
28166;SDS011;15455;53.376;-6.262;2022-10-16T08:17:43;2.60;;;0.50;;
28166;SDS011;15455;53.376;-6.262;2022-10-16T08:20:29;4.05;;;0.98;;
28166;SDS011;15455;53.376;-6.262;2022-10-16T08:23:16;5.15;;;0.93;;
28166;SDS011;15455;53.376;-6.262;2022-10-16T08:26:03;1.65;;;0.75;;
28166;SDS011;15455;53.376;-6.262;2022-10-16T08:28:50;2.72;;;0.60;;
28166;SDS011;15455;53.376;-6.262;2022-10-16T08:31:37;6.22;;;0.95;;
28166;SDS011;15455;53.376;-6.262;2022-10-16T08:34:22;6.07;;;0.98;;
28166;SDS011;15455;53.376;-6.262;2022-10-16T08:37:07;7.97;;;1.00;;
28166;SDS011;15455;53.376;-6.262;2022-10-16T08:39:55;3.72;;;0.60;;
28166;SDS011;15455;53.376;-6.262;2022-10-16T08:49:35;4.07;;;1.25;;
28166;SDS011;15455;53.376;-6.262;2022-10-16T08:52:22;3.33;;;0.77;;
28166;SDS011;15455;53.376;-6.262;2022-10-16T08:58:37;3.47;;;0.70;;
28166;SDS011;15455;53.376;-6.262;2022-10-16T09:01:23;2.15;;;0.80;;
28166;SDS011;15455;53.376;-6.262;2022-10-16T09:07:32;1.50;;;0.77;;
28166;SDS011;15455;53.376;-6.262;2022-10-16T09:13:27;2.20;;;1.05;;
28166;SDS011;15455;53.376;-6.262;2022-10-16T09:16:22;11.90;;;1.40;;
28166;SDS011;15455;53.376;-6.262;2022-10-16T09:19:21;14.90;;;1.75;;
28166;SDS011;15455;53.376;-6.262;2022-10-16T09:22:14;5.72;;;1.33;;
28166;SDS011;15455;53.376;-6.262;2022-10-16T09:25:01;6.18;;;1.00;;
28166;SDS011;15455;53.376;-6.262;2022-10-16T09:27:57;11.57;;;2.33;;
28166;SDS011;15455;53.376;-6.262;2022-10-16T09:30:42;3.00;;;1.35;;
28166;SDS011;15455;53.376;-6.262;2022-10-16T09:33:29;9.98;;;2.92;;
28166;SDS011;15455;53.376;-6.262;2022-10-16T09:36:20;8.38;;;2.88;;
28166;SDS011;15455;53.376;-6.262;2022-10-16T09:39:09;11.20;;;3.35;;
28166;SDS011;15455;53.376;-6.262;2022-10-16T09:41:56;9.35;;;2.95;;
28166;SDS011;15455;53.376;-6.262;2022-10-16T09:44:42;5.72;;;1.13;;
28166;SDS011;15455;53.376;-6.262;2022-10-16T09:47:35;11.18;;;3.53;;
28166;SDS011;15455;53.376;-6.262;2022-10-16T09:50:25;8.25;;;3.75;;
28166;SDS011;15455;53.376;-6.262;2022-10-16T09:53:13;10.55;;;2.53;;
28166;SDS011;15455;53.376;-6.262;2022-10-16T09:56:00;12.98;;;2.67;;
28166;SDS011;15455;53.376;-6.262;2022-10-16T09:58:49;10.40;;;1.70;;
28166;SDS011;15455;53.376;-6.262;2022-10-16T10:04:25;13.57;;;5.10;;
28166;SDS011;15455;53.376;-6.262;2022-10-16T10:07:18;21.73;;;8.65;;
28166;SDS011;15455;53.376;-6.262;2022-10-16T10:10:28;15.80;;;4.95;;
28166;SDS011;15455;53.376;-6.262;2022-10-16T10:13:22;4.78;;;1.45;;
28166;SDS011;15455;53.376;-6.262;2022-10-16T10:16:09;8.50;;;2.15;;
28166;SDS011;15455;53.376;-6.262;2022-10-16T10:18:58;11.00;;;3.15;;
28166;SDS011;15455;53.376;-6.262;2022-10-16T10:21:45;12.50;;;3.17;;
28166;SDS011;15455;53.376;-6.262;2022-10-16T10:24:30;6.15;;;1.33;;
28166;SDS011;15455;53.376;-6.262;2022-10-16T10:27:16;6.65;;;1.02;;
28166;SDS011;15455;53.376;-6.262;2022-10-16T10:36:28;8.50;;;3.13;;
28166;SDS011;15455;53.376;-6.262;2022-10-16T10:39:57;4.78;;;1.27;;
28166;SDS011;15455;53.376;-6.262;2022-10-16T10:42:51;5.88;;;1.30;;
28166;SDS011;15455;53.376;-6.262;2022-10-16T10:45:44;5.57;;;1.30;;
28166;SDS011;15455;53.376;-6.262;2022-10-16T11:01:33;3.80;;;0.68;;
28166;SDS011;15455;53.376;-6.262;2022-10-16T11:07:39;8.82;;;0.88;;
28166;SDS011;15455;53.376;-6.262;2022-10-16T11:10:57;2.92;;;0.60;;
28166;SDS011;15455;53.376;-6.262;2022-10-16T11:13:58;3.72;;;0.75;;
28166;SDS011;15455;53.376;-6.262;2022-10-16T11:16:53;1.75;;;0.77;;
28166;SDS011;15455;53.376;-6.262;2022-10-16T11:22:38;12.70;;;3.65;;
28166;SDS011;15455;53.376;-6.262;2022-10-16T11:25:29;5.85;;;1.52;;
28166;SDS011;15455;53.376;-6.262;2022-10-16T11:28:37;7.70;;;1.15;;
28166;SDS011;15455;53.376;-6.262;2022-10-16T11:31:47;1.17;;;0.45;;
28166;SDS011;15455;53.376;-6.262;2022-10-16T11:34:39;4.30;;;0.80;;
28166;SDS011;15455;53.376;-6.262;2022-10-16T11:37:33;4.28;;;0.88;;
28166;SDS011;15455;53.376;-6.262;2022-10-16T11:40:31;3.58;;;1.02;;
28166;SDS011;15455;53.376;-6.262;2022-10-16T11:43:25;5.38;;;2.03;;
28166;SDS011;15455;53.376;-6.262;2022-10-16T11:46:19;5.75;;;1.83;;
28166;SDS011;15455;53.376;-6.262;2022-10-16T11:49:14;4.10;;;1.13;;
28166;SDS011;15455;53.376;-6.262;2022-10-16T11:58:04;10.00;;;1.98;;
28166;SDS011;15455;53.376;-6.262;2022-10-16T12:07:04;7.78;;;1.80;;
28166;SDS011;15455;53.376;-6.262;2022-10-16T12:09:57;4.43;;;1.70;;
28166;SDS011;15455;53.376;-6.262;2022-10-16T12:12:45;9.30;;;2.28;;
28166;SDS011;15455;53.376;-6.262;2022-10-16T12:15:32;7.13;;;2.75;;
28166;SDS011;15455;53.376;-6.262;2022-10-16T12:18:39;9.32;;;2.72;;
28166;SDS011;15455;53.376;-6.262;2022-10-16T12:21:29;8.13;;;2.63;;
28166;SDS011;15455;53.376;-6.262;2022-10-16T12:24:27;13.98;;;5.10;;
28166;SDS011;15455;53.376;-6.262;2022-10-16T12:27:52;16.63;;;7.60;;
28166;SDS011;15455;53.376;-6.262;2022-10-16T12:30:27;14.70;;;7.30;;
28166;SDS011;15455;53.376;-6.262;2022-10-16T12:33:29;17.45;;;7.18;;
28166;SDS011;15455;53.376;-6.262;2022-10-16T12:36:34;4.47;;;3.00;;
28166;SDS011;15455;53.376;-6.262;2022-10-16T12:39:21;5.28;;;1.80;;
28166;SDS011;15455;53.376;-6.262;2022-10-16T12:42:20;7.03;;;1.45;;
28166;SDS011;15455;53.376;-6.262;2022-10-16T12:45:22;8.68;;;1.50;;
28166;SDS011;15455;53.376;-6.262;2022-10-16T12:48:20;4.03;;;1.33;;
28166;SDS011;15455;53.376;-6.262;2022-10-16T13:07:13;6.63;;;2.20;;
28166;SDS011;15455;53.376;-6.262;2022-10-16T13:10:26;5.75;;;1.70;;
28166;SDS011;15455;53.376;-6.262;2022-10-16T13:28:58;3.25;;;1.30;;
28166;SDS011;15455;53.376;-6.262;2022-10-16T13:31:46;6.22;;;1.88;;
28166;SDS011;15455;53.376;-6.262;2022-10-16T13:34:32;6.25;;;2.60;;
28166;SDS011;15455;53.376;-6.262;2022-10-16T13:37:17;6.72;;;3.08;;
28166;SDS011;15455;53.376;-6.262;2022-10-16T13:40:21;7.97;;;1.95;;
28166;SDS011;15455;53.376;-6.262;2022-10-16T13:43:08;5.47;;;1.60;;
28166;SDS011;15455;53.376;-6.262;2022-10-16T13:45:58;8.00;;;1.33;;
28166;SDS011;15455;53.376;-6.262;2022-10-16T13:48:56;9.23;;;1.50;;
28166;SDS011;15455;53.376;-6.262;2022-10-16T13:52:04;7.28;;;3.95;;
28166;SDS011;15455;53.376;-6.262;2022-10-16T13:54:48;5.10;;;2.45;;
28166;SDS011;15455;53.376;-6.262;2022-10-16T13:57:34;7.43;;;2.28;;
28166;SDS011;15455;53.376;-6.262;2022-10-16T14:00:23;2.13;;;0.80;;
28166;SDS011;15455;53.376;-6.262;2022-10-16T14:03:15;10.38;;;1.00;;
28166;SDS011;15455;53.376;-6.262;2022-10-16T14:06:01;6.75;;;1.30;;
28166;SDS011;15455;53.376;-6.262;2022-10-16T14:09:35;7.20;;;1.00;;
28166;SDS011;15455;53.376;-6.262;2022-10-16T14:12:11;8.30;;;2.17;;
28166;SDS011;15455;53.376;-6.262;2022-10-16T14:14:58;15.15;;;8.07;;
28166;SDS011;15455;53.376;-6.262;2022-10-16T14:17:45;10.93;;;5.40;;
28166;SDS011;15455;53.376;-6.262;2022-10-16T14:20:34;14.32;;;4.07;;
28166;SDS011;15455;53.376;-6.262;2022-10-16T14:23:21;13.77;;;3.05;;
28166;SDS011;15455;53.376;-6.262;2022-10-16T14:29:13;7.65;;;2.83;;
28166;SDS011;15455;53.376;-6.262;2022-10-16T14:32:01;5.10;;;1.83;;
28166;SDS011;15455;53.376;-6.262;2022-10-16T14:34:53;6.53;;;1.77;;
28166;SDS011;15455;53.376;-6.262;2022-10-16T14:37:39;8.60;;;2.30;;
28166;SDS011;15455;53.376;-6.262;2022-10-16T14:40:36;2.45;;;1.13;;
28166;SDS011;15455;53.376;-6.262;2022-10-16T14:43:26;3.90;;;1.15;;
28166;SDS011;15455;53.376;-6.262;2022-10-16T14:46:19;3.60;;;1.40;;
28166;SDS011;15455;53.376;-6.262;2022-10-16T14:51:56;4.28;;;1.25;;
28166;SDS011;15455;53.376;-6.262;2022-10-16T14:54:43;6.68;;;0.90;;
28166;SDS011;15455;53.376;-6.262;2022-10-16T14:57:28;6.13;;;1.63;;
28166;SDS011;15455;53.376;-6.262;2022-10-16T15:00:22;10.95;;;3.10;;
28166;SDS011;15455;53.376;-6.262;2022-10-16T15:03:09;6.13;;;2.95;;
28166;SDS011;15455;53.376;-6.262;2022-10-16T15:05:55;5.85;;;1.73;;
28166;SDS011;15455;53.376;-6.262;2022-10-16T15:08:40;8.65;;;0.70;;
28166;SDS011;15455;53.376;-6.262;2022-10-16T15:11:26;4.85;;;1.38;;
28166;SDS011;15455;53.376;-6.262;2022-10-16T15:14:12;8.00;;;1.90;;
28166;SDS011;15455;53.376;-6.262;2022-10-16T15:17:03;6.50;;;1.80;;
28166;SDS011;15455;53.376;-6.262;2022-10-16T15:19:49;6.00;;;1.65;;
28166;SDS011;15455;53.376;-6.262;2022-10-16T15:22:36;9.60;;;4.55;;
28166;SDS011;15455;53.376;-6.262;2022-10-16T15:25:38;11.73;;;4.65;;
28166;SDS011;15455;53.376;-6.262;2022-10-16T15:28:26;13.13;;;4.20;;
28166;SDS011;15455;53.376;-6.262;2022-10-16T15:31:12;9.45;;;3.17;;
28166;SDS011;15455;53.376;-6.262;2022-10-16T15:33:58;9.50;;;2.80;;
28166;SDS011;15455;53.376;-6.262;2022-10-16T15:36:48;8.18;;;2.22;;
28166;SDS011;15455;53.376;-6.262;2022-10-16T15:39:34;8.82;;;2.88;;
28166;SDS011;15455;53.376;-6.262;2022-10-16T15:42:25;4.80;;;2.05;;
28166;SDS011;15455;53.376;-6.262;2022-10-16T15:45:11;6.05;;;1.60;;
28166;SDS011;15455;53.376;-6.262;2022-10-16T15:47:58;7.18;;;1.95;;
28166;SDS011;15455;53.376;-6.262;2022-10-16T15:50:43;6.53;;;1.17;;
28166;SDS011;15455;53.376;-6.262;2022-10-16T15:53:34;8.52;;;1.80;;
28166;SDS011;15455;53.376;-6.262;2022-10-16T15:56:20;11.23;;;1.80;;
28166;SDS011;15455;53.376;-6.262;2022-10-16T15:59:06;8.80;;;1.60;;
28166;SDS011;15455;53.376;-6.262;2022-10-16T16:01:52;7.75;;;1.90;;
28166;SDS011;15455;53.376;-6.262;2022-10-16T16:04:37;13.88;;;3.10;;
28166;SDS011;15455;53.376;-6.262;2022-10-16T16:07:28;14.27;;;3.83;;
28166;SDS011;15455;53.376;-6.262;2022-10-16T16:10:13;12.07;;;2.65;;
28166;SDS011;15455;53.376;-6.262;2022-10-16T16:12:59;4.15;;;1.30;;
28166;SDS011;15455;53.376;-6.262;2022-10-16T16:15:45;4.70;;;1.33;;
28166;SDS011;15455;53.376;-6.262;2022-10-16T16:18:30;3.95;;;1.33;;
28166;SDS011;15455;53.376;-6.262;2022-10-16T16:21:16;11.63;;;1.73;;
28166;SDS011;15455;53.376;-6.262;2022-10-16T16:24:01;15.25;;;1.85;;
28166;SDS011;15455;53.376;-6.262;2022-10-16T16:29:39;10.68;;;1.90;;
28166;SDS011;15455;53.376;-6.262;2022-10-16T16:32:25;14.38;;;1.73;;
28166;SDS011;15455;53.376;-6.262;2022-10-16T16:35:10;4.53;;;2.13;;
28166;SDS011;15455;53.376;-6.262;2022-10-16T16:37:56;19.92;;;2.58;;
28166;SDS011;15455;53.376;-6.262;2022-10-16T16:40:41;18.33;;;3.35;;
28166;SDS011;15455;53.376;-6.262;2022-10-16T16:43:27;17.85;;;3.95;;
28166;SDS011;15455;53.376;-6.262;2022-10-16T16:46:13;11.57;;;2.13;;
28166;SDS011;15455;53.376;-6.262;2022-10-16T16:48:59;7.57;;;1.80;;
28166;SDS011;15455;53.376;-6.262;2022-10-16T16:51:46;11.45;;;1.45;;
28166;SDS011;15455;53.376;-6.262;2022-10-16T16:54:31;9.30;;;1.40;;
28166;SDS011;15455;53.376;-6.262;2022-10-16T16:57:19;12.07;;;1.77;;
28166;SDS011;15455;53.376;-6.262;2022-10-16T17:00:06;8.50;;;1.67;;
28166;SDS011;15455;53.376;-6.262;2022-10-16T17:02:52;8.23;;;1.67;;
28166;SDS011;15455;53.376;-6.262;2022-10-16T17:05:37;4.90;;;1.73;;
28166;SDS011;15455;53.376;-6.262;2022-10-16T17:08:23;12.10;;;1.95;;
28166;SDS011;15455;53.376;-6.262;2022-10-16T17:11:13;10.77;;;2.85;;
28166;SDS011;15455;53.376;-6.262;2022-10-16T17:14:01;12.35;;;2.25;;
28166;SDS011;15455;53.376;-6.262;2022-10-16T17:16:47;10.45;;;2.22;;
28166;SDS011;15455;53.376;-6.262;2022-10-16T17:19:34;14.82;;;1.63;;
28166;SDS011;15455;53.376;-6.262;2022-10-16T17:22:19;13.70;;;2.45;;
28166;SDS011;15455;53.376;-6.262;2022-10-16T17:25:06;13.82;;;2.50;;
28166;SDS011;15455;53.376;-6.262;2022-10-16T17:27:52;15.57;;;2.17;;
28166;SDS011;15455;53.376;-6.262;2022-10-16T17:30:38;19.10;;;2.97;;
28166;SDS011;15455;53.376;-6.262;2022-10-16T17:33:25;17.52;;;2.22;;
28166;SDS011;15455;53.376;-6.262;2022-10-16T17:36:11;19.40;;;5.43;;
28166;SDS011;15455;53.376;-6.262;2022-10-16T17:38:59;17.52;;;3.00;;
28166;SDS011;15455;53.376;-6.262;2022-10-16T17:41:48;15.68;;;3.25;;
28166;SDS011;15455;53.376;-6.262;2022-10-16T17:44:33;12.43;;;3.22;;
28166;SDS011;15455;53.376;-6.262;2022-10-16T17:47:19;14.27;;;2.47;;
28166;SDS011;15455;53.376;-6.262;2022-10-16T17:50:04;13.50;;;2.90;;
28166;SDS011;15455;53.376;-6.262;2022-10-16T17:52:50;16.33;;;3.13;;
28166;SDS011;15455;53.376;-6.262;2022-10-16T17:55:37;11.38;;;3.00;;
28166;SDS011;15455;53.376;-6.262;2022-10-16T17:58:24;25.67;;;3.85;;
28166;SDS011;15455;53.376;-6.262;2022-10-16T18:04:01;18.92;;;2.92;;
28166;SDS011;15455;53.376;-6.262;2022-10-16T18:06:51;17.60;;;3.30;;
28166;SDS011;15455;53.376;-6.262;2022-10-16T18:09:37;20.90;;;3.42;;
28166;SDS011;15455;53.376;-6.262;2022-10-16T18:12:43;16.88;;;3.22;;
28166;SDS011;15455;53.376;-6.262;2022-10-16T18:15:28;20.05;;;3.80;;
28166;SDS011;15455;53.376;-6.262;2022-10-16T18:18:14;17.38;;;3.47;;
28166;SDS011;15455;53.376;-6.262;2022-10-16T18:21:00;21.85;;;4.18;;
28166;SDS011;15455;53.376;-6.262;2022-10-16T18:23:47;13.40;;;3.08;;
28166;SDS011;15455;53.376;-6.262;2022-10-16T18:26:36;16.55;;;3.13;;